sensor_id;sensor_type;location;lat;lon;timestamp;pressure;altitude;pressure_sealevel;temperature;humidity
40384;BME280;26097;42.366;23.818;2023-10-31T00:00:56;94301.44;;;6.96;100.00
40384;BME280;26097;42.366;23.818;2023-10-31T00:03:55;94297.13;;;6.81;100.00
40384;BME280;26097;42.366;23.818;2023-10-31T00:06:55;94288.31;;;6.69;100.00
40384;BME280;26097;42.366;23.818;2023-10-31T00:09:54;94287.50;;;6.68;100.00
40384;BME280;26097;42.366;23.818;2023-10-31T00:12:54;94288.38;;;6.67;100.00
40384;BME280;26097;42.366;23.818;2023-10-31T00:15:53;94284.91;;;6.68;100.00
40384;BME280;26097;42.366;23.818;2023-10-31T00:18:53;94276.28;;;6.68;100.00
40384;BME280;26097;42.366;23.818;2023-10-31T00:21:52;94282.38;;;6.67;100.00
40384;BME280;26097;42.366;23.818;2023-10-31T00:24:52;94283.81;;;6.56;100.00
40384;BME280;26097;42.366;23.818;2023-10-31T00:27:51;94293.53;;;6.53;100.00
40384;BME280;26097;42.366;23.818;2023-10-31T00:30:50;94291.53;;;6.58;100.00
40384;BME280;26097;42.366;23.818;2023-10-31T00:33:50;94287.81;;;6.62;100.00
40384;BME280;26097;42.366;23.818;2023-10-31T00:36:49;94284.09;;;6.52;100.00
40384;BME280;26097;42.366;23.818;2023-10-31T00:39:49;94281.09;;;6.60;100.00
40384;BME280;26097;42.366;23.818;2023-10-31T00:42:48;94280.97;;;6.61;100.00
40384;BME280;26097;42.366;23.818;2023-10-31T00:45:47;94281.59;;;6.50;100.00
40384;BME280;26097;42.366;23.818;2023-10-31T00:48:47;94276.66;;;6.46;100.00
40384;BME280;26097;42.366;23.818;2023-10-31T00:51:47;94281.84;;;6.46;100.00
40384;BME280;26097;42.366;23.818;2023-10-31T00:54:46;94279.75;;;6.52;100.00
40384;BME280;26097;42.366;23.818;2023-10-31T00:57:46;94276.53;;;6.49;100.00
40384;BME280;26097;42.366;23.818;2023-10-31T01:00:45;94268.56;;;6.52;100.00
40384;BME280;26097;42.366;23.818;2023-10-31T01:03:44;94271.16;;;6.52;100.00
40384;BME280;26097;42.366;23.818;2023-10-31T01:06:44;94264.47;;;6.48;100.00
40384;BME280;26097;42.366;23.818;2023-10-31T01:09:43;94266.66;;;6.39;100.00
40384;BME280;26097;42.366;23.818;2023-10-31T01:12:43;94267.22;;;6.45;100.00
40384;BME280;26097;42.366;23.818;2023-10-31T01:15:43;94268.50;;;6.37;100.00
40384;BME280;26097;42.366;23.818;2023-10-31T01:18:42;94262.94;;;6.29;100.00
40384;BME280;26097;42.366;23.818;2023-10-31T01:21:41;94256.84;;;6.30;100.00
40384;BME280;26097;42.366;23.818;2023-10-31T01:24:41;94255.50;;;6.39;100.00
40384;BME280;26097;42.366;23.818;2023-10-31T01:27:40;94256.13;;;6.42;100.00
40384;BME280;26097;42.366;23.818;2023-10-31T01:30:41;94253.16;;;6.34;100.00
40384;BME280;26097;42.366;23.818;2023-10-31T01:33:40;94244.06;;;6.27;100.00
40384;BME280;26097;42.366;23.818;2023-10-31T01:36:39;94251.00;;;6.26;100.00
40384;BME280;26097;42.366;23.818;2023-10-31T01:39:39;94245.16;;;6.23;100.00
40384;BME280;26097;42.366;23.818;2023-10-31T01:42:38;94247.66;;;6.24;100.00
40384;BME280;26097;42.366;23.818;2023-10-31T01:45:38;94237.94;;;6.28;100.00
40384;BME280;26097;42.366;23.818;2023-10-31T01:48:37;94232.38;;;6.20;100.00
40384;BME280;26097;42.366;23.818;2023-10-31T01:51:37;94228.81;;;6.22;100.00
40384;BME280;26097;42.366;23.818;2023-10-31T01:54:37;94226.28;;;6.21;100.00
40384;BME280;26097;42.366;23.818;2023-10-31T01:57:36;94235.16;;;6.17;100.00
40384;BME280;26097;42.366;23.818;2023-10-31T02:00:36;94228.50;;;6.12;100.00
40384;BME280;26097;42.366;23.818;2023-10-31T02:03:38;94226.97;;;6.08;100.00
40384;BME280;26097;42.366;23.818;2023-10-31T02:06:38;94236.50;;;6.08;100.00
40384;BME280;26097;42.366;23.818;2023-10-31T02:09:37;94233.66;;;6.12;100.00
40384;BME280;26097;42.366;23.818;2023-10-31T02:12:37;94232.56;;;6.17;100.00
40384;BME280;26097;42.366;23.818;2023-10-31T02:15:36;94230.78;;;6.17;100.00
40384;BME280;26097;42.366;23.818;2023-10-31T02:18:36;94236.75;;;6.19;100.00
40384;BME280;26097;42.366;23.818;2023-10-31T02:21:39;94231.41;;;6.06;100.00
40384;BME280;26097;42.366;23.818;2023-10-31T02:24:38;94227.31;;;6.02;100.00
40384;BME280;26097;42.366;23.818;2023-10-31T02:27:38;94227.81;;;6.09;100.00
40384;BME280;26097;42.366;23.818;2023-10-31T02:30:37;94232.00;;;6.11;100.00
40384;BME280;26097;42.366;23.818;2023-10-31T02:33:38;94226.97;;;6.08;100.00
40384;BME280;26097;42.366;23.818;2023-10-31T02:36:37;94228.16;;;6.03;100.00
40384;BME280;26097;42.366;23.818;2023-10-31T02:39:37;94229.13;;;6.00;100.00
40384;BME280;26097;42.366;23.818;2023-10-31T02:42:36;94223.47;;;5.93;100.00
40384;BME280;26097;42.366;23.818;2023-10-31T02:45:36;94227.25;;;6.04;100.00
40384;BME280;26097;42.366;23.818;2023-10-31T02:48:35;94224.38;;;6.08;100.00
40384;BME280;26097;42.366;23.818;2023-10-31T02:51:38;94222.66;;;5.93;100.00
40384;BME280;26097;42.366;23.818;2023-10-31T02:54:38;94218.97;;;5.97;100.00
40384;BME280;26097;42.366;23.818;2023-10-31T02:57:37;94219.56;;;6.02;100.00
40384;BME280;26097;42.366;23.818;2023-10-31T03:00:37;94213.97;;;5.94;100.00
40384;BME280;26097;42.366;23.818;2023-10-31T03:03:36;94219.63;;;5.84;100.00
40384;BME280;26097;42.366;23.818;2023-10-31T03:06:36;94226.66;;;5.82;100.00
40384;BME280;26097;42.366;23.818;2023-10-31T03:09:35;94228.75;;;5.92;100.00
40384;BME280;26097;42.366;23.818;2023-10-31T03:12:35;94228.75;;;5.92;100.00
40384;BME280;26097;42.366;23.818;2023-10-31T03:15:34;94222.31;;;5.83;100.00
40384;BME280;26097;42.366;23.818;2023-10-31T03:18:33;94228.81;;;5.74;100.00
40384;BME280;26097;42.366;23.818;2023-10-31T03:21:33;94223.66;;;5.74;100.00
40384;BME280;26097;42.366;23.818;2023-10-31T03:24:32;94220.66;;;5.82;100.00
40384;BME280;26097;42.366;23.818;2023-10-31T03:27:32;94227.31;;;5.86;100.00
40384;BME280;26097;42.366;23.818;2023-10-31T03:30:31;94219.81;;;5.81;100.00
40384;BME280;26097;42.366;23.818;2023-10-31T03:33:31;94217.13;;;5.67;100.00
40384;BME280;26097;42.366;23.818;2023-10-31T03:36:31;94217.47;;;5.77;100.00
40384;BME280;26097;42.366;23.818;2023-10-31T03:39:30;94212.81;;;5.67;100.00
40384;BME280;26097;42.366;23.818;2023-10-31T03:42:29;94212.47;;;5.57;100.00
40384;BME280;26097;42.366;23.818;2023-10-31T03:45:29;94212.72;;;5.69;100.00
40384;BME280;26097;42.366;23.818;2023-10-31T03:48:28;94208.63;;;5.65;100.00
40384;BME280;26097;42.366;23.818;2023-10-31T03:51:28;94201.63;;;5.67;100.00
40384;BME280;26097;42.366;23.818;2023-10-31T03:54:27;94207.81;;;5.64;100.00
40384;BME280;26097;42.366;23.818;2023-10-31T03:57:26;94207.38;;;5.56;100.00
40384;BME280;26097;42.366;23.818;2023-10-31T04:00:26;94195.47;;;5.53;100.00
40384;BME280;26097;42.366;23.818;2023-10-31T04:03:25;94201.56;;;5.52;100.00
40384;BME280;26097;42.366;23.818;2023-10-31T04:06:25;94202.31;;;5.54;100.00
40384;BME280;26097;42.366;23.818;2023-10-31T04:09:24;94205.72;;;5.55;100.00
40384;BME280;26097;42.366;23.818;2023-10-31T04:12:23;94205.31;;;5.47;100.00
40384;BME280;26097;42.366;23.818;2023-10-31T04:15:23;94197.97;;;5.39;100.00
40384;BME280;26097;42.366;23.818;2023-10-31T04:18:22;94187.78;;;5.36;100.00
40384;BME280;26097;42.366;23.818;2023-10-31T04:21:21;94190.94;;;5.41;100.00
40384;BME280;26097;42.366;23.818;2023-10-31T04:24:21;94180.28;;;5.31;100.00
40384;BME280;26097;42.366;23.818;2023-10-31T04:27:20;94178.19;;;5.38;100.00
40384;BME280;26097;42.366;23.818;2023-10-31T04:30:20;94184.28;;;5.37;100.00
40384;BME280;26097;42.366;23.818;2023-10-31T04:33:20;94191.69;;;5.27;100.00
40384;BME280;26097;42.366;23.818;2023-10-31T04:36:20;94193.78;;;5.20;100.00
40384;BME280;26097;42.366;23.818;2023-10-31T04:39:19;94190.16;;;5.07;100.00
40384;BME280;26097;42.366;23.818;2023-10-31T04:42:19;94182.56;;;5.04;100.00
40384;BME280;26097;42.366;23.818;2023-10-31T04:45:19;94182.75;;;5.17;100.00
40384;BME280;26097;42.366;23.818;2023-10-31T04:48:18;94179.53;;;5.13;100.00
40384;BME280;26097;42.366;23.818;2023-10-31T04:51:18;94185.44;;;5.15;100.00
40384;BME280;26097;42.366;23.818;2023-10-31T04:54:17;94187.09;;;5.16;100.00
40384;BME280;26097;42.366;23.818;2023-10-31T04:57:17;94186.41;;;5.12;100.00
40384;BME280;26097;42.366;23.818;2023-10-31T05:00:16;94192.44;;;5.13;100.00
40384;BME280;26097;42.366;23.818;2023-10-31T05:03:16;94189.69;;;5.16;100.00
40384;BME280;26097;42.366;23.818;2023-10-31T05:06:19;94183.03;;;5.12;100.00
40384;BME280;26097;42.366;23.818;2023-10-31T05:09:19;94188.94;;;5.14;100.00
40384;BME280;26097;42.366;23.818;2023-10-31T05:12:19;94190.44;;;5.18;100.00
40384;BME280;26097;42.366;23.818;2023-10-31T05:15:18;94193.94;;;5.17;100.00
40384;BME280;26097;42.366;23.818;2023-10-31T05:18:18;94189.94;;;5.27;100.00
40384;BME280;26097;42.366;23.818;2023-10-31T05:21:20;94199.03;;;5.35;100.00
40384;BME280;26097;42.366;23.818;2023-10-31T05:24:20;94198.78;;;5.39;100.00
40384;BME280;26097;42.366;23.818;2023-10-31T05:27:19;94202.97;;;5.42;100.00
40384;BME280;26097;42.366;23.818;2023-10-31T05:30:18;94206.13;;;5.47;100.00
40384;BME280;26097;42.366;23.818;2023-10-31T05:33:18;94208.28;;;5.55;100.00
40384;BME280;26097;42.366;23.818;2023-10-31T05:36:21;94207.63;;;5.67;100.00
40384;BME280;26097;42.366;23.818;2023-10-31T05:39:21;94207.97;;;5.77;100.00
40384;BME280;26097;42.366;23.818;2023-10-31T05:42:20;94206.28;;;5.92;100.00
40384;BME280;26097;42.366;23.818;2023-10-31T05:45:20;94210.34;;;5.96;100.00
40384;BME280;26097;42.366;23.818;2023-10-31T05:48:20;94208.59;;;6.13;100.00
40384;BME280;26097;42.366;23.818;2023-10-31T05:51:19;94211.31;;;6.26;100.00
40384;BME280;26097;42.366;23.818;2023-10-31T05:54:18;94211.72;;;6.34;100.00
40384;BME280;26097;42.366;23.818;2023-10-31T05:57:18;94208.41;;;6.47;100.00
40384;BME280;26097;42.366;23.818;2023-10-31T06:00:18;94206.22;;;6.55;100.00
40384;BME280;26097;42.366;23.818;2023-10-31T06:03:17;94213.13;;;6.70;100.00
40384;BME280;26097;42.366;23.818;2023-10-31T06:06:17;94210.25;;;6.90;100.00
40384;BME280;26097;42.366;23.818;2023-10-31T06:09:16;94207.56;;;7.06;100.00
40384;BME280;26097;42.366;23.818;2023-10-31T06:12:16;94202.13;;;7.25;100.00
40384;BME280;26097;42.366;23.818;2023-10-31T06:15:15;94214.69;;;7.46;100.00
40384;BME280;26097;42.366;23.818;2023-10-31T06:18:14;94214.38;;;7.65;100.00
40384;BME280;26097;42.366;23.818;2023-10-31T06:21:14;94211.91;;;7.91;100.00
40384;BME280;26097;42.366;23.818;2023-10-31T06:24:14;94206.56;;;8.07;100.00
40384;BME280;26097;42.366;23.818;2023-10-31T06:27:13;94203.00;;;8.22;100.00
40384;BME280;26097;42.366;23.818;2023-10-31T06:30:13;94195.94;;;8.37;100.00
40384;BME280;26097;42.366;23.818;2023-10-31T06:33:12;94193.50;;;8.49;100.00
40384;BME280;26097;42.366;23.818;2023-10-31T06:36:12;94188.34;;;8.62;100.00
40384;BME280;26097;42.366;23.818;2023-10-31T06:39:11;94195.22;;;8.76;100.00
40384;BME280;26097;42.366;23.818;2023-10-31T06:42:10;94190.84;;;8.89;100.00
40384;BME280;26097;42.366;23.818;2023-10-31T06:45:10;94195.63;;;9.08;100.00
40384;BME280;26097;42.366;23.818;2023-10-31T06:48:09;94193.00;;;9.21;100.00
40384;BME280;26097;42.366;23.818;2023-10-31T06:51:08;94191.88;;;9.25;100.00
40384;BME280;26097;42.366;23.818;2023-10-31T06:54:08;94185.09;;;9.36;100.00
40384;BME280;26097;42.366;23.818;2023-10-31T06:57:07;94200.66;;;9.49;100.00
40384;BME280;26097;42.366;23.818;2023-10-31T07:00:08;94196.19;;;9.64;100.00
40384;BME280;26097;42.366;23.818;2023-10-31T07:03:08;94193.94;;;9.83;100.00
40384;BME280;26097;42.366;23.818;2023-10-31T07:06:08;94199.69;;;10.00;100.00
40384;BME280;26097;42.366;23.818;2023-10-31T07:09:07;94197.63;;;10.17;100.00
40384;BME280;26097;42.366;23.818;2023-10-31T07:12:08;94193.06;;;10.32;100.00
40384;BME280;26097;42.366;23.818;2023-10-31T07:15:08;94199.69;;;10.49;100.00
40384;BME280;26097;42.366;23.818;2023-10-31T07:18:07;94193.44;;;10.63;100.00
40384;BME280;26097;42.366;23.818;2023-10-31T07:21:08;94196.94;;;10.86;100.00
40384;BME280;26097;42.366;23.818;2023-10-31T07:24:08;94202.88;;;10.99;100.00
40384;BME280;26097;42.366;23.818;2023-10-31T07:27:08;94198.28;;;11.14;100.00
40384;BME280;26097;42.366;23.818;2023-10-31T07:30:08;94203.16;;;11.31;100.00
40384;BME280;26097;42.366;23.818;2023-10-31T07:33:08;94193.91;;;11.38;100.00
40384;BME280;26097;42.366;23.818;2023-10-31T07:36:07;94195.09;;;11.45;100.00
40384;BME280;26097;42.366;23.818;2023-10-31T07:39:07;94189.38;;;11.51;100.00
40384;BME280;26097;42.366;23.818;2023-10-31T07:42:06;94197.47;;;11.60;100.00
40384;BME280;26097;42.366;23.818;2023-10-31T07:45:06;94187.94;;;11.70;100.00
40384;BME280;26097;42.366;23.818;2023-10-31T07:48:05;94192.22;;;11.82;100.00
40384;BME280;26097;42.366;23.818;2023-10-31T07:51:05;94193.13;;;11.93;100.00
40384;BME280;26097;42.366;23.818;2023-10-31T07:54:04;94185.06;;;12.07;100.00
40384;BME280;26097;42.366;23.818;2023-10-31T07:57:04;94184.28;;;12.17;100.00
40384;BME280;26097;42.366;23.818;2023-10-31T08:00:04;94177.84;;;12.32;100.00
40384;BME280;26097;42.366;23.818;2023-10-31T08:03:04;94174.34;;;12.43;100.00
40384;BME280;26097;42.366;23.818;2023-10-31T08:06:05;94172.50;;;12.55;100.00
40384;BME280;26097;42.366;23.818;2023-10-31T08:09:04;94162.44;;;12.71;100.00
40384;BME280;26097;42.366;23.818;2023-10-31T08:12:04;94152.34;;;12.88;100.00
40384;BME280;26097;42.366;23.818;2023-10-31T08:15:04;94149.50;;;13.22;100.00
40384;BME280;26097;42.366;23.818;2023-10-31T08:18:03;94146.53;;;13.37;100.00
40384;BME280;26097;42.366;23.818;2023-10-31T08:21:03;94133.75;;;13.53;100.00
40384;BME280;26097;42.366;23.818;2023-10-31T08:24:03;94135.09;;;13.89;100.00
40384;BME280;26097;42.366;23.818;2023-10-31T08:27:04;94126.28;;;14.09;100.00
40384;BME280;26097;42.366;23.818;2023-10-31T08:30:04;94135.38;;;14.54;100.00
40384;BME280;26097;42.366;23.818;2023-10-31T08:33:03;94135.38;;;14.64;100.00
40384;BME280;26097;42.366;23.818;2023-10-31T08:36:03;94137.41;;;14.70;100.00
40384;BME280;26097;42.366;23.818;2023-10-31T08:39:04;94130.13;;;14.84;100.00
40384;BME280;26097;42.366;23.818;2023-10-31T08:42:03;94123.41;;;15.09;100.00
40384;BME280;26097;42.366;23.818;2023-10-31T08:45:03;94121.41;;;15.31;100.00
40384;BME280;26097;42.366;23.818;2023-10-31T08:48:03;94119.53;;;15.41;100.00
40384;BME280;26097;42.366;23.818;2023-10-31T08:51:02;94109.00;;;15.51;100.00
40384;BME280;26097;42.366;23.818;2023-10-31T08:54:02;94101.81;;;15.53;100.00
40384;BME280;26097;42.366;23.818;2023-10-31T08:57:01;94106.19;;;15.63;100.00
40384;BME280;26097;42.366;23.818;2023-10-31T09:00:01;94094.75;;;15.72;100.00
40384;BME280;26097;42.366;23.818;2023-10-31T09:03:02;94099.53;;;15.87;100.00
40384;BME280;26097;42.366;23.818;2023-10-31T09:06:02;94095.88;;;15.97;100.00
40384;BME280;26097;42.366;23.818;2023-10-31T09:09:02;94090.53;;;16.07;100.00
40384;BME280;26097;42.366;23.818;2023-10-31T09:12:03;94075.75;;;16.06;100.00
40384;BME280;26097;42.366;23.818;2023-10-31T09:15:03;94070.59;;;16.15;100.00
40384;BME280;26097;42.366;23.818;2023-10-31T09:18:02;94074.31;;;16.30;100.00
40384;BME280;26097;42.366;23.818;2023-10-31T09:21:02;94065.56;;;16.48;100.00
40384;BME280;26097;42.366;23.818;2023-10-31T09:24:02;94068.75;;;16.60;100.00
40384;BME280;26097;42.366;23.818;2023-10-31T09:27:01;94066.41;;;16.75;100.00
40384;BME280;26097;42.366;23.818;2023-10-31T09:30:01;94059.59;;;16.90;100.00
40384;BME280;26097;42.366;23.818;2023-10-31T09:33:00;94051.53;;;17.18;100.00
40384;BME280;26097;42.366;23.818;2023-10-31T09:36:00;94044.69;;;17.42;100.00
40384;BME280;26097;42.366;23.818;2023-10-31T09:39:00;94037.81;;;17.49;100.00
40384;BME280;26097;42.366;23.818;2023-10-31T09:42:00;94042.44;;;17.55;100.00
40384;BME280;26097;42.366;23.818;2023-10-31T09:44:59;94025.31;;;17.68;100.00
40384;BME280;26097;42.366;23.818;2023-10-31T09:48:00;94018.09;;;17.87;100.00
40384;BME280;26097;42.366;23.818;2023-10-31T09:51:02;94013.16;;;17.83;100.00
40384;BME280;26097;42.366;23.818;2023-10-31T09:54:02;94003.47;;;18.01;100.00
40384;BME280;26097;42.366;23.818;2023-10-31T09:57:02;93991.13;;;18.09;100.00
40384;BME280;26097;42.366;23.818;2023-10-31T10:00:05;93983.22;;;18.18;100.00
40384;BME280;26097;42.366;23.818;2023-10-31T10:03:08;93988.00;;;18.22;100.00
40384;BME280;26097;42.366;23.818;2023-10-31T10:06:09;93989.44;;;18.50;100.00
40384;BME280;26097;42.366;23.818;2023-10-31T10:09:09;93979.19;;;18.55;100.00
40384;BME280;26097;42.366;23.818;2023-10-31T10:12:11;93981.63;;;18.73;100.00
40384;BME280;26097;42.366;23.818;2023-10-31T10:15:11;93976.00;;;18.76;100.00
40384;BME280;26097;42.366;23.818;2023-10-31T10:18:24;93972.41;;;18.69;100.00
40384;BME280;26097;42.366;23.818;2023-10-31T10:21:23;93968.56;;;18.88;100.00
40384;BME280;26097;42.366;23.818;2023-10-31T10:24:24;93953.34;;;18.98;100.00
40384;BME280;26097;42.366;23.818;2023-10-31T10:27:24;93946.06;;;19.01;98.91
40384;BME280;26097;42.366;23.818;2023-10-31T10:30:23;93949.78;;;19.23;100.00
40384;BME280;26097;42.366;23.818;2023-10-31T10:33:22;93955.78;;;19.40;92.37
40384;BME280;26097;42.366;23.818;2023-10-31T10:36:22;93940.06;;;19.47;85.36
40384;BME280;26097;42.366;23.818;2023-10-31T10:39:22;93937.00;;;19.58;80.82
40384;BME280;26097;42.366;23.818;2023-10-31T10:42:32;93942.75;;;19.62;78.95
40384;BME280;26097;42.366;23.818;2023-10-31T10:45:33;93928.41;;;19.79;83.51
40384;BME280;26097;42.366;23.818;2023-10-31T10:48:36;93921.50;;;20.02;75.80
40384;BME280;26097;42.366;23.818;2023-10-31T10:51:53;93930.47;;;20.31;72.61
40384;BME280;26097;42.366;23.818;2023-10-31T10:55:08;93925.09;;;20.24;67.74
40384;BME280;26097;42.366;23.818;2023-10-31T10:58:25;93919.47;;;20.42;67.99
40384;BME280;26097;42.366;23.818;2023-10-31T11:01:26;93906.16;;;20.65;72.87
40384;BME280;26097;42.366;23.818;2023-10-31T11:04:27;93907.03;;;20.73;67.98
40384;BME280;26097;42.366;23.818;2023-10-31T11:07:27;93899.22;;;20.64;71.94
40384;BME280;26097;42.366;23.818;2023-10-31T11:10:28;93896.28;;;20.74;69.65
40384;BME280;26097;42.366;23.818;2023-10-31T11:13:28;93902.22;;;20.91;67.88
40384;BME280;26097;42.366;23.818;2023-10-31T11:16:40;93893.69;;;21.11;65.82
40384;BME280;26097;42.366;23.818;2023-10-31T11:19:42;93879.19;;;21.29;68.42
40384;BME280;26097;42.366;23.818;2023-10-31T11:22:45;93879.91;;;21.37;65.23
40384;BME280;26097;42.366;23.818;2023-10-31T11:25:49;93883.31;;;21.53;64.72
40384;BME280;26097;42.366;23.818;2023-10-31T11:28:51;93883.50;;;21.51;65.84
40384;BME280;26097;42.366;23.818;2023-10-31T11:31:50;93874.03;;;21.42;65.97
40384;BME280;26097;42.366;23.818;2023-10-31T11:34:49;93868.44;;;21.15;66.89
40384;BME280;26097;42.366;23.818;2023-10-31T11:37:50;93865.44;;;21.40;66.63
40384;BME280;26097;42.366;23.818;2023-10-31T11:41:01;93852.19;;;21.62;65.16
40384;BME280;26097;42.366;23.818;2023-10-31T11:44:02;93848.31;;;21.64;64.02
40384;BME280;26097;42.366;23.818;2023-10-31T11:47:01;93839.63;;;21.71;63.49
40384;BME280;26097;42.366;23.818;2023-10-31T11:50:02;93831.72;;;21.77;62.26
40384;BME280;26097;42.366;23.818;2023-10-31T11:53:09;93833.34;;;21.57;60.64
40384;BME280;26097;42.366;23.818;2023-10-31T11:56:12;93827.44;;;21.54;62.19
40384;BME280;26097;42.366;23.818;2023-10-31T11:59:11;93829.16;;;21.40;61.79
40384;BME280;26097;42.366;23.818;2023-10-31T12:02:15;93832.59;;;21.19;62.64
40384;BME280;26097;42.366;23.818;2023-10-31T12:05:14;93823.06;;;21.03;63.50
40384;BME280;26097;42.366;23.818;2023-10-31T12:08:14;93805.41;;;20.74;65.19
40384;BME280;26097;42.366;23.818;2023-10-31T12:11:18;93806.44;;;20.43;66.23
40384;BME280;26097;42.366;23.818;2023-10-31T12:14:19;93805.16;;;20.38;66.42
40384;BME280;26097;42.366;23.818;2023-10-31T12:17:19;93808.81;;;20.37;65.92
40384;BME280;26097;42.366;23.818;2023-10-31T12:20:19;93805.28;;;20.30;65.98
40384;BME280;26097;42.366;23.818;2023-10-31T12:23:18;93814.31;;;20.21;66.78
40384;BME280;26097;42.366;23.818;2023-10-31T12:26:21;93826.53;;;20.22;66.46
40384;BME280;26097;42.366;23.818;2023-10-31T12:29:21;93829.91;;;20.16;66.60
40384;BME280;26097;42.366;23.818;2023-10-31T12:32:21;93814.03;;;20.16;66.24
40384;BME280;26097;42.366;23.818;2023-10-31T12:35:22;93814.03;;;20.16;66.42
40384;BME280;26097;42.366;23.818;2023-10-31T12:38:21;93802.44;;;20.17;66.31
40384;BME280;26097;42.366;23.818;2023-10-31T12:41:21;93783.94;;;20.02;66.03
40384;BME280;26097;42.366;23.818;2023-10-31T12:44:24;93783.09;;;20.01;64.99
40384;BME280;26097;42.366;23.818;2023-10-31T12:47:24;93789.75;;;19.97;65.51
40384;BME280;26097;42.366;23.818;2023-10-31T12:50:24;93795.16;;;20.04;63.94
40384;BME280;26097;42.366;23.818;2023-10-31T12:53:23;93798.34;;;20.14;62.87
40384;BME280;26097;42.366;23.818;2023-10-31T12:56:40;93806.91;;;20.46;59.10
40384;BME280;26097;42.366;23.818;2023-10-31T12:59:39;93792.53;;;20.71;59.65
40384;BME280;26097;42.366;23.818;2023-10-31T13:02:39;93787.94;;;20.94;56.61
40384;BME280;26097;42.366;23.818;2023-10-31T13:05:39;93781.88;;;21.44;56.96
40384;BME280;26097;42.366;23.818;2023-10-31T13:08:39;93784.59;;;21.58;53.89
40384;BME280;26097;42.366;23.818;2023-10-31T13:11:39;93771.91;;;21.46;53.93
40384;BME280;26097;42.366;23.818;2023-10-31T13:14:39;93773.28;;;20.98;53.93
40384;BME280;26097;42.366;23.818;2023-10-31T13:17:38;93776.66;;;20.71;56.40
40384;BME280;26097;42.366;23.818;2023-10-31T13:20:38;93786.00;;;20.36;55.41
40384;BME280;26097;42.366;23.818;2023-10-31T13:23:37;93784.19;;;20.07;56.96
40384;BME280;26097;42.366;23.818;2023-10-31T13:26:37;93797.44;;;19.92;57.96
40384;BME280;26097;42.366;23.818;2023-10-31T13:29:37;93789.16;;;19.72;58.69
40384;BME280;26097;42.366;23.818;2023-10-31T13:32:38;93796.44;;;19.54;57.79
40384;BME280;26097;42.366;23.818;2023-10-31T13:35:37;93786.06;;;19.30;59.22
40384;BME280;26097;42.366;23.818;2023-10-31T13:38:37;93789.59;;;19.22;58.94
40384;BME280;26097;42.366;23.818;2023-10-31T13:41:37;93790.25;;;19.01;58.23
40384;BME280;26097;42.366;23.818;2023-10-31T13:44:37;93790.38;;;18.76;58.74
40384;BME280;26097;42.366;23.818;2023-10-31T13:47:36;93786.88;;;18.83;59.24
40384;BME280;26097;42.366;23.818;2023-10-31T13:50:37;93777.13;;;18.84;59.47
40384;BME280;26097;42.366;23.818;2023-10-31T13:53:36;93769.25;;;18.76;59.90
40384;BME280;26097;42.366;23.818;2023-10-31T13:56:35;93774.28;;;18.62;59.71
40384;BME280;26097;42.366;23.818;2023-10-31T13:59:35;93772.28;;;18.64;59.90
40384;BME280;26097;42.366;23.818;2023-10-31T14:02:35;93766.28;;;18.47;60.47
40384;BME280;26097;42.366;23.818;2023-10-31T14:05:34;93769.44;;;18.42;60.86
40384;BME280;26097;42.366;23.818;2023-10-31T14:08:34;93766.72;;;18.27;60.73
40384;BME280;26097;42.366;23.818;2023-10-31T14:11:33;93765.06;;;18.26;61.32
40384;BME280;26097;42.366;23.818;2023-10-31T14:14:33;93769.84;;;18.23;61.80
40384;BME280;26097;42.366;23.818;2023-10-31T14:17:32;93776.16;;;18.13;62.52
40384;BME280;26097;42.366;23.818;2023-10-31T14:20:31;93772.56;;;17.98;63.08
40384;BME280;26097;42.366;23.818;2023-10-31T14:23:31;93779.19;;;17.85;63.14
40384;BME280;26097;42.366;23.818;2023-10-31T14:26:30;93774.44;;;17.73;63.65
40384;BME280;26097;42.366;23.818;2023-10-31T14:29:32;93783.19;;;17.56;64.01
40384;BME280;26097;42.366;23.818;2023-10-31T14:32:31;93779.59;;;17.41;64.59
40384;BME280;26097;42.366;23.818;2023-10-31T14:35:30;93775.16;;;17.25;65.08
40384;BME280;26097;42.366;23.818;2023-10-31T14:38:30;93778.59;;;17.09;65.57
40384;BME280;26097;42.366;23.818;2023-10-31T14:41:29;93783.00;;;16.92;66.50
40384;BME280;26097;42.366;23.818;2023-10-31T14:44:32;93791.06;;;16.74;67.25
40384;BME280;26097;42.366;23.818;2023-10-31T14:47:31;93795.97;;;16.60;67.66
40384;BME280;26097;42.366;23.818;2023-10-31T14:50:32;93789.31;;;16.39;68.25
40384;BME280;26097;42.366;23.818;2023-10-31T14:53:31;93790.56;;;16.19;69.33
40384;BME280;26097;42.366;23.818;2023-10-31T14:56:30;93792.59;;;15.98;71.06
40384;BME280;26097;42.366;23.818;2023-10-31T14:59:30;93796.59;;;15.76;72.29
40384;BME280;26097;42.366;23.818;2023-10-31T15:02:30;93804.34;;;15.60;73.15
40384;BME280;26097;42.366;23.818;2023-10-31T15:05:29;93804.34;;;15.33;74.92
40384;BME280;26097;42.366;23.818;2023-10-31T15:08:29;93802.72;;;15.14;75.99
40384;BME280;26097;42.366;23.818;2023-10-31T15:11:29;93795.28;;;14.91;76.98
40384;BME280;26097;42.366;23.818;2023-10-31T15:14:28;93793.47;;;14.74;77.86
40384;BME280;26097;42.366;23.818;2023-10-31T15:17:28;93793.31;;;14.57;78.72
40384;BME280;26097;42.366;23.818;2023-10-31T15:20:27;93799.06;;;14.42;79.70
40384;BME280;26097;42.366;23.818;2023-10-31T15:23:28;93792.56;;;14.19;81.70
40384;BME280;26097;42.366;23.818;2023-10-31T15:26:29;93805.22;;;13.95;84.02
40384;BME280;26097;42.366;23.818;2023-10-31T15:29:29;93805.56;;;13.82;86.30
40384;BME280;26097;42.366;23.818;2023-10-31T15:32:28;93798.72;;;13.62;87.53
40384;BME280;26097;42.366;23.818;2023-10-31T15:35:28;93798.19;;;13.48;89.62
40384;BME280;26097;42.366;23.818;2023-10-31T15:38:27;93789.81;;;13.25;92.30